sensor_id;sensor_type;location;lat;lon;timestamp;pressure;altitude;pressure_sealevel;temperature;humidity
76074;BME280;64776;42.636;24.358;2024-01-15T00:00:53;89469.09;;;-4.43;76.88
76074;BME280;64776;42.636;24.358;2024-01-15T00:03:54;89460.84;;;-4.65;76.62
76074;BME280;64776;42.636;24.358;2024-01-15T00:06:56;89457.97;;;-4.70;76.78
76074;BME280;64776;42.636;24.358;2024-01-15T00:09:57;89460.97;;;-4.72;76.58
76074;BME280;64776;42.636;24.358;2024-01-15T00:12:58;89449.78;;;-4.96;75.67
76074;BME280;64776;42.636;24.358;2024-01-15T00:15:59;89455.75;;;-4.95;77.15
76074;BME280;64776;42.636;24.358;2024-01-15T00:18:59;89445.63;;;-5.16;76.96
76074;BME280;64776;42.636;24.358;2024-01-15T00:22:02;89437.88;;;-5.20;78.33
76074;BME280;64776;42.636;24.358;2024-01-15T00:25:03;89446.56;;;-5.30;78.97
76074;BME280;64776;42.636;24.358;2024-01-15T00:28:05;89450.16;;;-5.20;78.40
76074;BME280;64776;42.636;24.358;2024-01-15T00:31:05;89452.47;;;-5.29;78.63
76074;BME280;64776;42.636;24.358;2024-01-15T00:34:06;89454.03;;;-5.32;78.74
76074;BME280;64776;42.636;24.358;2024-01-15T00:37:08;89441.44;;;-5.37;78.62
76074;BME280;64776;42.636;24.358;2024-01-15T00:40:09;89450.00;;;-5.40;79.27
76074;BME280;64776;42.636;24.358;2024-01-15T00:43:10;89447.41;;;-5.40;79.62
76074;BME280;64776;42.636;24.358;2024-01-15T00:46:11;89447.13;;;-5.15;79.33
76074;BME280;64776;42.636;24.358;2024-01-15T00:49:12;89445.63;;;-5.16;78.96
76074;BME280;64776;42.636;24.358;2024-01-15T00:52:14;89445.63;;;-5.16;79.43
76074;BME280;64776;42.636;24.358;2024-01-15T00:55:15;89454.53;;;-5.17;79.07
76074;BME280;64776;42.636;24.358;2024-01-15T00:58:26;89443.63;;;-5.32;78.78
76074;BME280;64776;42.636;24.358;2024-01-15T01:01:27;89449.31;;;-5.44;79.01
76074;BME280;64776;42.636;24.358;2024-01-15T01:04:28;89439.09;;;-5.54;79.29
76074;BME280;64776;42.636;24.358;2024-01-15T01:07:30;89442.94;;;-5.66;80.45
76074;BME280;64776;42.636;24.358;2024-01-15T01:10:31;89431.94;;;-5.47;79.54
76074;BME280;64776;42.636;24.358;2024-01-15T01:13:32;89437.22;;;-5.54;80.49
76074;BME280;64776;42.636;24.358;2024-01-15T01:16:33;89432.13;;;-5.64;80.31
76074;BME280;64776;42.636;24.358;2024-01-15T01:19:34;89439.13;;;-5.58;80.40
76074;BME280;64776;42.636;24.358;2024-01-15T01:22:36;89436.50;;;-5.58;79.93
76074;BME280;64776;42.636;24.358;2024-01-15T01:25:37;89441.03;;;-5.62;79.39
76074;BME280;64776;42.636;24.358;2024-01-15T01:28:37;89428.38;;;-5.60;79.09
76074;BME280;64776;42.636;24.358;2024-01-15T01:31:42;89427.59;;;-5.57;79.11
76074;BME280;64776;42.636;24.358;2024-01-15T01:34:43;89425.25;;;-5.78;79.62
76074;BME280;64776;42.636;24.358;2024-01-15T01:37:45;89425.75;;;-5.87;80.39
76074;BME280;64776;42.636;24.358;2024-01-15T01:40:46;89434.72;;;-5.91;81.46
76074;BME280;64776;42.636;24.358;2024-01-15T01:43:47;89425.59;;;-5.76;81.33
76074;BME280;64776;42.636;24.358;2024-01-15T01:46:48;89432.03;;;-5.84;80.61
76074;BME280;64776;42.636;24.358;2024-01-15T01:49:48;89435.56;;;-5.98;80.26
76074;BME280;64776;42.636;24.358;2024-01-15T01:52:51;89432.22;;;-5.98;80.67
76074;BME280;64776;42.636;24.358;2024-01-15T01:55:52;89424.66;;;-5.89;79.85
76074;BME280;64776;42.636;24.358;2024-01-15T01:58:54;89419.91;;;-5.94;80.58
76074;BME280;64776;42.636;24.358;2024-01-15T02:01:55;89419.91;;;-5.94;80.61
76074;BME280;64776;42.636;24.358;2024-01-15T02:04:56;89414.78;;;-5.98;79.95
76074;BME280;64776;42.636;24.358;2024-01-15T02:07:58;89417.41;;;-6.01;80.37
76074;BME280;64776;42.636;24.358;2024-01-15T02:10:59;89420.66;;;-5.94;80.58
76074;BME280;64776;42.636;24.358;2024-01-15T02:13:59;89415.25;;;-6.10;81.03
76074;BME280;64776;42.636;24.358;2024-01-15T02:17:00;89418.38;;;-6.22;81.86
76074;BME280;64776;42.636;24.358;2024-01-15T02:20:01;89419.75;;;-6.47;83.19
76074;BME280;64776;42.636;24.358;2024-01-15T02:23:10;89418.56;;;-6.39;82.84
76074;BME280;64776;42.636;24.358;2024-01-15T02:26:11;89413.88;;;-6.18;83.29
76074;BME280;64776;42.636;24.358;2024-01-15T02:29:13;89418.69;;;-6.16;82.75
76074;BME280;64776;42.636;24.358;2024-01-15T02:32:14;89418.00;;;-6.20;82.55
76074;BME280;64776;42.636;24.358;2024-01-15T02:35:15;89415.59;;;-6.04;83.10
76074;BME280;64776;42.636;24.358;2024-01-15T02:38:17;89403.66;;;-5.98;82.72
76074;BME280;64776;42.636;24.358;2024-01-15T02:41:18;89413.75;;;-6.07;81.82
76074;BME280;64776;42.636;24.358;2024-01-15T02:44:19;89409.88;;;-6.26;81.33
76074;BME280;64776;42.636;24.358;2024-01-15T02:47:20;89406.44;;;-6.49;82.36
76074;BME280;64776;42.636;24.358;2024-01-15T02:50:21;89397.34;;;-6.34;81.86
76074;BME280;64776;42.636;24.358;2024-01-15T02:53:23;89400.66;;;-6.30;81.46
76074;BME280;64776;42.636;24.358;2024-01-15T02:56:24;89401.34;;;-6.23;81.49
76074;BME280;64776;42.636;24.358;2024-01-15T02:59:25;89393.25;;;-6.32;82.05
76074;BME280;64776;42.636;24.358;2024-01-15T03:02:25;89392.09;;;-6.65;82.81
76074;BME280;64776;42.636;24.358;2024-01-15T03:05:27;89385.03;;;-6.60;83.97
76074;BME280;64776;42.636;24.358;2024-01-15T03:08:29;89396.75;;;-6.45;83.23
76074;BME280;64776;42.636;24.358;2024-01-15T03:11:37;89384.03;;;-6.36;82.63
76074;BME280;64776;42.636;24.358;2024-01-15T03:14:38;89384.97;;;-6.53;82.87
76074;BME280;64776;42.636;24.358;2024-01-15T03:17:38;89393.38;;;-6.83;84.76
76074;BME280;64776;42.636;24.358;2024-01-15T03:20:39;89384.44;;;-6.75;85.19
76074;BME280;64776;42.636;24.358;2024-01-15T03:23:41;89382.34;;;-6.50;86.74
76074;BME280;64776;42.636;24.358;2024-01-15T03:26:42;89378.50;;;-6.38;86.12
76074;BME280;64776;42.636;24.358;2024-01-15T03:29:43;89382.22;;;-6.39;85.38
76074;BME280;64776;42.636;24.358;2024-01-15T03:32:44;89385.53;;;-6.35;85.63
76074;BME280;64776;42.636;24.358;2024-01-15T03:35:44;89388.38;;;-6.26;84.85
76074;BME280;64776;42.636;24.358;2024-01-15T03:38:47;89377.63;;;-6.25;83.49
76074;BME280;64776;42.636;24.358;2024-01-15T03:41:48;89381.19;;;-6.49;82.95
76074;BME280;64776;42.636;24.358;2024-01-15T03:44:48;89381.97;;;-6.52;83.33
76074;BME280;64776;42.636;24.358;2024-01-15T03:47:49;89387.53;;;-6.91;85.22
76074;BME280;64776;42.636;24.358;2024-01-15T03:50:50;89379.16;;;-6.65;85.51
76074;BME280;64776;42.636;24.358;2024-01-15T03:53:52;89365.75;;;-6.59;85.21
76074;BME280;64776;42.636;24.358;2024-01-15T03:56:53;89362.81;;;-6.61;84.94
76074;BME280;64776;42.636;24.358;2024-01-15T03:59:54;89372.47;;;-6.66;84.40
76074;BME280;64776;42.636;24.358;2024-01-15T04:02:58;89362.44;;;-6.60;84.21
76074;BME280;64776;42.636;24.358;2024-01-15T04:05:58;89361.22;;;-6.52;83.55
76074;BME280;64776;42.636;24.358;2024-01-15T04:09:01;89358.59;;;-6.86;83.99
76074;BME280;64776;42.636;24.358;2024-01-15T04:12:01;89357.41;;;-6.78;83.67
76074;BME280;64776;42.636;24.358;2024-01-15T04:15:03;89351.38;;;-6.68;84.07
76074;BME280;64776;42.636;24.358;2024-01-15T04:18:04;89360.34;;;-6.76;84.40
76074;BME280;64776;42.636;24.358;2024-01-15T04:21:05;89355.16;;;-6.76;84.48
76074;BME280;64776;42.636;24.358;2024-01-15T04:24:08;89362.94;;;-6.76;84.49
76074;BME280;64776;42.636;24.358;2024-01-15T04:27:08;89361.88;;;-6.82;84.78
76074;BME280;64776;42.636;24.358;2024-01-15T04:30:10;89358.69;;;-6.55;86.47
76074;BME280;64776;42.636;24.358;2024-01-15T04:33:11;89352.44;;;-6.61;88.89
76074;BME280;64776;42.636;24.358;2024-01-15T04:36:12;89347.88;;;-6.50;88.80
76074;BME280;64776;42.636;24.358;2024-01-15T04:39:14;89352.66;;;-6.45;87.33
76074;BME280;64776;42.636;24.358;2024-01-15T04:42:14;89344.19;;;-6.53;86.77
76074;BME280;64776;42.636;24.358;2024-01-15T04:45:15;89338.75;;;-6.62;85.62
76074;BME280;64776;42.636;24.358;2024-01-15T04:48:16;89339.38;;;-6.54;85.25
76074;BME280;64776;42.636;24.358;2024-01-15T04:51:17;89345.31;;;-6.54;84.65
76074;BME280;64776;42.636;24.358;2024-01-15T04:54:19;89346.81;;;-6.56;84.39
76074;BME280;64776;42.636;24.358;2024-01-15T04:57:20;89348.09;;;-6.72;83.63
76074;BME280;64776;42.636;24.358;2024-01-15T05:00:20;89356.50;;;-6.60;83.91
76074;BME280;64776;42.636;24.358;2024-01-15T05:03:21;89353.72;;;-7.21;86.66
76074;BME280;64776;42.636;24.358;2024-01-15T05:06:22;89352.75;;;-6.93;86.27
76074;BME280;64776;42.636;24.358;2024-01-15T05:09:24;89349.72;;;-6.85;86.66
76074;BME280;64776;42.636;24.358;2024-01-15T05:12:25;89343.88;;;-6.96;85.75
76074;BME280;64776;42.636;24.358;2024-01-15T05:15:26;89349.06;;;-6.96;85.68
76074;BME280;64776;42.636;24.358;2024-01-15T05:18:26;89352.59;;;-6.79;84.93
76074;BME280;64776;42.636;24.358;2024-01-15T05:21:27;89340.78;;;-6.80;84.65
76074;BME280;64776;42.636;24.358;2024-01-15T05:24:29;89334.75;;;-6.74;84.56
76074;BME280;64776;42.636;24.358;2024-01-15T05:27:30;89338.88;;;-7.17;84.70
76074;BME280;64776;42.636;24.358;2024-01-15T05:30:31;89332.81;;;-7.00;85.78
76074;BME280;64776;42.636;24.358;2024-01-15T05:33:31;89333.69;;;-7.17;86.98
76074;BME280;64776;42.636;24.358;2024-01-15T05:36:32;89334.00;;;-7.08;86.94
76074;BME280;64776;42.636;24.358;2024-01-15T05:39:34;89327.66;;;-7.03;87.52
76074;BME280;64776;42.636;24.358;2024-01-15T05:42:35;89332.41;;;-6.95;87.03
76074;BME280;64776;42.636;24.358;2024-01-15T05:45:38;89326.06;;;-6.94;85.78
76074;BME280;64776;42.636;24.358;2024-01-15T05:48:39;89328.75;;;-7.04;85.64
76074;BME280;64776;42.636;24.358;2024-01-15T05:51:39;89327.63;;;-7.00;85.17
76074;BME280;64776;42.636;24.358;2024-01-15T05:54:42;89333.94;;;-7.01;84.60
76074;BME280;64776;42.636;24.358;2024-01-15T05:57:42;89333.16;;;-6.98;85.67
76074;BME280;64776;42.636;24.358;2024-01-15T06:00:43;89326.81;;;-6.93;84.91
76074;BME280;64776;42.636;24.358;2024-01-15T06:03:44;89330.16;;;-6.96;85.41
76074;BME280;64776;42.636;24.358;2024-01-15T06:06:45;89333.59;;;-7.03;86.02
76074;BME280;64776;42.636;24.358;2024-01-15T06:09:47;89330.06;;;-6.86;85.71
76074;BME280;64776;42.636;24.358;2024-01-15T06:12:47;89323.97;;;-6.69;85.92
76074;BME280;64776;42.636;24.358;2024-01-15T06:15:48;89322.84;;;-6.68;85.97
76074;BME280;64776;42.636;24.358;2024-01-15T06:18:49;89322.84;;;-6.68;85.70
76074;BME280;64776;42.636;24.358;2024-01-15T06:21:50;89331.56;;;-6.88;86.39
76074;BME280;64776;42.636;24.358;2024-01-15T06:24:52;89332.53;;;-6.72;86.31
76074;BME280;64776;42.636;24.358;2024-01-15T06:27:53;89333.09;;;-6.53;86.51
76074;BME280;64776;42.636;24.358;2024-01-15T06:30:54;89333.44;;;-6.51;86.94
76074;BME280;64776;42.636;24.358;2024-01-15T06:33:55;89331.78;;;-6.35;87.52
76074;BME280;64776;42.636;24.358;2024-01-15T06:36:56;89337.84;;;-6.15;87.76
76074;BME280;64776;42.636;24.358;2024-01-15T06:39:58;89331.34;;;-6.00;87.99
76074;BME280;64776;42.636;24.358;2024-01-15T06:42:58;89324.94;;;-5.92;87.04
76074;BME280;64776;42.636;24.358;2024-01-15T06:45:59;89316.75;;;-5.90;87.11
76074;BME280;64776;42.636;24.358;2024-01-15T06:49:00;89316.25;;;-5.82;86.80
76074;BME280;64776;42.636;24.358;2024-01-15T06:52:01;89317.84;;;-5.64;86.80
76074;BME280;64776;42.636;24.358;2024-01-15T06:55:03;89318.03;;;-5.52;86.23
76074;BME280;64776;42.636;24.358;2024-01-15T06:58:05;89321.13;;;-5.34;86.09
76074;BME280;64776;42.636;24.358;2024-01-15T07:01:05;89323.03;;;-5.15;85.70
76074;BME280;64776;42.636;24.358;2024-01-15T07:04:06;89314.81;;;-4.90;86.22
76074;BME280;64776;42.636;24.358;2024-01-15T07:07:09;89308.34;;;-4.78;86.44
76074;BME280;64776;42.636;24.358;2024-01-15T07:10:11;89301.13;;;-4.51;86.15
76074;BME280;64776;42.636;24.358;2024-01-15T07:13:12;89298.28;;;-4.37;86.72
76074;BME280;64776;42.636;24.358;2024-01-15T07:16:13;89302.97;;;-4.29;86.44
76074;BME280;64776;42.636;24.358;2024-01-15T07:19:14;89319.91;;;-4.21;85.94
76074;BME280;64776;42.636;24.358;2024-01-15T07:22:14;89329.06;;;-4.13;85.70
76074;BME280;64776;42.636;24.358;2024-01-15T07:25:17;89332.00;;;-4.10;85.58
76074;BME280;64776;42.636;24.358;2024-01-15T07:28:17;89348.66;;;-4.08;85.69
76074;BME280;64776;42.636;24.358;2024-01-15T07:31:19;89339.59;;;-4.00;85.52
76074;BME280;64776;42.636;24.358;2024-01-15T07:34:19;89341.81;;;-3.98;85.16
76074;BME280;64776;42.636;24.358;2024-01-15T07:37:20;89341.66;;;-3.91;84.50
76074;BME280;64776;42.636;24.358;2024-01-15T07:40:22;89346.31;;;-3.83;85.07
76074;BME280;64776;42.636;24.358;2024-01-15T07:43:23;89336.50;;;-3.75;84.71
76074;BME280;64776;42.636;24.358;2024-01-15T07:46:24;89337.00;;;-3.64;84.70
76074;BME280;64776;42.636;24.358;2024-01-15T07:49:25;89331.97;;;-3.55;84.56
76074;BME280;64776;42.636;24.358;2024-01-15T07:52:26;89343.50;;;-3.37;85.37
76074;BME280;64776;42.636;24.358;2024-01-15T07:55:28;89343.28;;;-3.26;84.68
76074;BME280;64776;42.636;24.358;2024-01-15T07:58:29;89334.28;;;-3.09;84.73
76074;BME280;64776;42.636;24.358;2024-01-15T08:01:29;89327.38;;;-2.83;84.28
76074;BME280;64776;42.636;24.358;2024-01-15T08:04:30;89325.28;;;-2.60;83.68
76074;BME280;64776;42.636;24.358;2024-01-15T08:07:31;89331.38;;;-2.34;83.23
76074;BME280;64776;42.636;24.358;2024-01-15T08:10:33;89340.31;;;-2.19;82.58
76074;BME280;64776;42.636;24.358;2024-01-15T08:13:34;89340.59;;;-2.01;82.44
76074;BME280;64776;42.636;24.358;2024-01-15T08:16:35;89347.94;;;-1.83;82.16
76074;BME280;64776;42.636;24.358;2024-01-15T08:19:36;89356.97;;;-1.72;81.56
76074;BME280;64776;42.636;24.358;2024-01-15T08:22:38;89351.03;;;-1.59;81.62
76074;BME280;64776;42.636;24.358;2024-01-15T08:25:44;89353.34;;;-1.49;81.66
76074;BME280;64776;42.636;24.358;2024-01-15T08:28:45;89357.13;;;-1.37;81.49
76074;BME280;64776;42.636;24.358;2024-01-15T08:31:46;89350.75;;;-1.36;81.04
76074;BME280;64776;42.636;24.358;2024-01-15T08:34:47;89358.69;;;-1.40;81.04
76074;BME280;64776;42.636;24.358;2024-01-15T08:37:48;89357.13;;;-1.37;80.62
76074;BME280;64776;42.636;24.358;2024-01-15T08:40:50;89348.16;;;-1.24;80.67
76074;BME280;64776;42.636;24.358;2024-01-15T08:43:51;89344.38;;;-1.10;80.82
76074;BME280;64776;42.636;24.358;2024-01-15T08:46:52;89350.03;;;-0.99;80.92
76074;BME280;64776;42.636;24.358;2024-01-15T08:49:52;89339.03;;;-0.82;80.97
76074;BME280;64776;42.636;24.358;2024-01-15T08:52:53;89337.84;;;-0.68;80.26
76074;BME280;64776;42.636;24.358;2024-01-15T08:55:56;89319.59;;;-0.59;80.44
76074;BME280;64776;42.636;24.358;2024-01-15T08:58:56;89316.22;;;-0.47;80.37
76074;BME280;64776;42.636;24.358;2024-01-15T09:01:57;89312.19;;;-0.39;79.98
76074;BME280;64776;42.636;24.358;2024-01-15T09:04:58;89317.56;;;-0.42;78.63
76074;BME280;64776;42.636;24.358;2024-01-15T09:07:59;89304.97;;;-0.35;78.40
76074;BME280;64776;42.636;24.358;2024-01-15T09:11:01;89309.06;;;-0.12;78.55
76074;BME280;64776;42.636;24.358;2024-01-15T09:14:02;89300.47;;;0.09;78.08
76074;BME280;64776;42.636;24.358;2024-01-15T09:17:03;89290.78;;;0.19;77.26
76074;BME280;64776;42.636;24.358;2024-01-15T09:20:06;89288.56;;;0.39;77.26
76074;BME280;64776;42.636;24.358;2024-01-15T09:23:06;89284.16;;;0.57;76.16
76074;BME280;64776;42.636;24.358;2024-01-15T09:26:09;89269.00;;;0.61;73.71
76074;BME280;64776;42.636;24.358;2024-01-15T09:29:10;89264.56;;;0.80;74.03
76074;BME280;64776;42.636;24.358;2024-01-15T09:32:11;89260.25;;;1.04;72.84
76074;BME280;64776;42.636;24.358;2024-01-15T09:35:11;89257.38;;;1.29;72.90
76074;BME280;64776;42.636;24.358;2024-01-15T09:38:12;89251.16;;;1.72;73.11
76074;BME280;64776;42.636;24.358;2024-01-15T09:41:15;89249.50;;;2.11;72.04
76074;BME280;64776;42.636;24.358;2024-01-15T09:44:16;89236.47;;;2.34;69.63
76074;BME280;64776;42.636;24.358;2024-01-15T09:47:18;89230.13;;;2.50;68.83
76074;BME280;64776;42.636;24.358;2024-01-15T09:50:19;89227.44;;;2.68;67.20
76074;BME280;64776;42.636;24.358;2024-01-15T09:53:20;89209.38;;;2.85;65.21
76074;BME280;64776;42.636;24.358;2024-01-15T09:56:23;89202.88;;;2.95;61.02
76074;BME280;64776;42.636;24.358;2024-01-15T09:59:24;89189.28;;;2.96;59.21
76074;BME280;64776;42.636;24.358;2024-01-15T10:02:26;89180.19;;;3.21;58.53
76074;BME280;64776;42.636;24.358;2024-01-15T10:05:27;89163.97;;;3.37;57.87
76074;BME280;64776;42.636;24.358;2024-01-15T10:08:28;89163.81;;;3.41;57.08
76074;BME280;64776;42.636;24.358;2024-01-15T10:11:30;89157.72;;;3.49;56.35
76074;BME280;64776;42.636;24.358;2024-01-15T10:14:50;89157.69;;;3.73;54.79
76074;BME280;64776;42.636;24.358;2024-01-15T10:17:50;89150.53;;;4.02;55.64
76074;BME280;64776;42.636;24.358;2024-01-15T10:20:51;89137.13;;;4.21;53.10
76074;BME280;64776;42.636;24.358;2024-01-15T10:23:53;89133.88;;;4.40;53.63
76074;BME280;64776;42.636;24.358;2024-01-15T10:27:05;89137.09;;;4.64;51.64
76074;BME280;64776;42.636;24.358;2024-01-15T10:30:07;89148.75;;;4.58;51.61
76074;BME280;64776;42.636;24.358;2024-01-15T10:33:08;89148.69;;;4.52;51.94
76074;BME280;64776;42.636;24.358;2024-01-15T10:36:09;89147.41;;;4.33;50.83
76074;BME280;64776;42.636;24.358;2024-01-15T10:39:10;89141.66;;;4.49;52.39
76074;BME280;64776;42.636;24.358;2024-01-15T10:42:12;89143.00;;;4.74;52.29
76074;BME280;64776;42.636;24.358;2024-01-15T10:45:13;89130.16;;;5.02;50.73
76074;BME280;64776;42.636;24.358;2024-01-15T10:48:16;89129.41;;;5.01;50.91
76074;BME280;64776;42.636;24.358;2024-01-15T10:51:18;89120.25;;;4.97;50.48
76074;BME280;64776;42.636;24.358;2024-01-15T10:54:19;89110.25;;;4.86;51.08
76074;BME280;64776;42.636;24.358;2024-01-15T10:57:23;89105.31;;;4.93;50.69
76074;BME280;64776;42.636;24.358;2024-01-15T11:00:26;89106.25;;;5.11;50.06
76074;BME280;64776;42.636;24.358;2024-01-15T11:03:28;89104.13;;;5.35;50.28
76074;BME280;64776;42.636;24.358;2024-01-15T11:06:41;89097.81;;;5.52;51.65
76074;BME280;64776;42.636;24.358;2024-01-15T11:09:42;89097.47;;;5.65;49.84
76074;BME280;64776;42.636;24.358;2024-01-15T11:12:50;89091.97;;;5.23;51.29
76074;BME280;64776;42.636;24.358;2024-01-15T11:16:01;89087.16;;;5.21;51.06
76074;BME280;64776;42.636;24.358;2024-01-15T11:19:03;89095.97;;;5.38;50.85
76074;BME280;64776;42.636;24.358;2024-01-15T11:22:07;89089.00;;;5.61;50.57
76074;BME280;64776;42.636;24.358;2024-01-15T11:25:13;89087.31;;;5.58;49.65
76074;BME280;64776;42.636;24.358;2024-01-15T11:28:49;89080.75;;;5.79;48.59
76074;BME280;64776;42.636;24.358;2024-01-15T11:32:04;89076.34;;;5.91;48.23
76074;BME280;64776;42.636;24.358;2024-01-15T11:35:05;89077.19;;;5.82;48.48
76074;BME280;64776;42.636;24.358;2024-01-15T11:38:06;89079.22;;;5.67;48.91
76074;BME280;64776;42.636;24.358;2024-01-15T11:41:13;89065.72;;;5.65;48.96
76074;BME280;64776;42.636;24.358;2024-01-15T11:44:16;89067.63;;;5.39;48.96
76074;BME280;64776;42.636;24.358;2024-01-15T11:47:31;89080.13;;;5.38;48.49
76074;BME280;64776;42.636;24.358;2024-01-15T11:50:40;89080.97;;;5.30;48.36
76074;BME280;64776;42.636;24.358;2024-01-15T11:53:45;89088.47;;;5.31;48.23
76074;BME280;64776;42.636;24.358;2024-01-15T11:56:48;89074.06;;;5.12;47.73
76074;BME280;64776;42.636;24.358;2024-01-15T11:59:51;89071.81;;;5.05;49.24
76074;BME280;64776;42.636;24.358;2024-01-15T12:02:52;89052.66;;;4.90;47.74
76074;BME280;64776;42.636;24.358;2024-01-15T12:05:52;89061.16;;;5.20;48.64
76074;BME280;64776;42.636;24.358;2024-01-15T12:09:05;89065.75;;;5.19;48.44
76074;BME280;64776;42.636;24.358;2024-01-15T12:12:37;89061.38;;;5.62;48.30
76074;BME280;64776;42.636;24.358;2024-01-15T12:15:42;89058.56;;;5.71;47.13
76074;BME280;64776;42.636;24.358;2024-01-15T12:18:45;89042.50;;;5.74;48.52
76074;BME280;64776;42.636;24.358;2024-01-15T12:21:46;89055.00;;;5.74;48.27
76074;BME280;64776;42.636;24.358;2024-01-15T12:24:46;89055.97;;;5.76;48.04
76074;BME280;64776;42.636;24.358;2024-01-15T12:27:56;89057.81;;;5.45;47.66
76074;BME280;64776;42.636;24.358;2024-01-15T12:30:59;89061.16;;;5.20;48.72
76074;BME280;64776;42.636;24.358;2024-01-15T12:34:01;89066.50;;;5.05;49.08
76074;BME280;64776;42.636;24.358;2024-01-15T12:37:02;89066.47;;;5.00;49.76
76074;BME280;64776;42.636;24.358;2024-01-15T12:40:03;89065.59;;;4.88;50.08
76074;BME280;64776;42.636;24.358;2024-01-15T12:43:06;89067.78;;;4.69;48.87
76074;BME280;64776;42.636;24.358;2024-01-15T12:46:08;89066.81;;;4.52;49.59
76074;BME280;64776;42.636;24.358;2024-01-15T12:49:09;89063.31;;;4.61;50.08
76074;BME280;64776;42.636;24.358;2024-01-15T12:52:10;89053.94;;;4.60;49.46
76074;BME280;64776;42.636;24.358;2024-01-15T12:55:11;89046.41;;;4.53;50.60
76074;BME280;64776;42.636;24.358;2024-01-15T12:58:15;89040.66;;;4.54;50.30
76074;BME280;64776;42.636;24.358;2024-01-15T13:01:17;89046.94;;;4.57;50.83
76074;BME280;64776;42.636;24.358;2024-01-15T13:04:22;89047.53;;;4.66;50.84
76074;BME280;64776;42.636;24.358;2024-01-15T13:07:23;89039.63;;;4.66;51.32
76074;BME280;64776;42.636;24.358;2024-01-15T13:10:23;89042.34;;;4.92;51.27
76074;BME280;64776;42.636;24.358;2024-01-15T13:13:24;89036.22;;;5.01;50.21
76074;BME280;64776;42.636;24.358;2024-01-15T13:16:26;89028.88;;;4.90;50.29
76074;BME280;64776;42.636;24.358;2024-01-15T13:19:27;89022.06;;;4.83;49.48
76074;BME280;64776;42.636;24.358;2024-01-15T13:22:27;89025.75;;;4.71;51.66
76074;BME280;64776;42.636;24.358;2024-01-15T13:25:28;89017.31;;;4.67;51.71
76074;BME280;64776;42.636;24.358;2024-01-15T13:28:29;89012.81;;;4.73;52.15
76074;BME280;64776;42.636;24.358;2024-01-15T13:31:31;89000.13;;;4.77;54.46
76074;BME280;64776;42.636;24.358;2024-01-15T13:34:32;88992.84;;;4.92;52.70
76074;BME280;64776;42.636;24.358;2024-01-15T13:37:34;88988.00;;;5.11;52.32
76074;BME280;64776;42.636;24.358;2024-01-15T13:40:34;88993.06;;;5.35;53.40
76074;BME280;64776;42.636;24.358;2024-01-15T13:43:35;88995.38;;;5.27;51.21
76074;BME280;64776;42.636;24.358;2024-01-15T13:46:37;89011.09;;;5.11;51.87
76074;BME280;64776;42.636;24.358;2024-01-15T13:49:38;89012.22;;;4.84;50.92
76074;BME280;64776;42.636;24.358;2024-01-15T13:52:39;89002.97;;;4.94;52.48
76074;BME280;64776;42.636;24.358;2024-01-15T13:55:39;89000.16;;;5.03;51.92
76074;BME280;64776;42.636;24.358;2024-01-15T13:58:40;88997.13;;;5.10;52.86
76074;BME280;64776;42.636;24.358;2024-01-15T14:01:42;88987.91;;;5.26;52.73
76074;BME280;64776;42.636;24.358;2024-01-15T14:04:44;88983.22;;;5.35;53.26
76074;BME280;64776;42.636;24.358;2024-01-15T14:07:45;88979.09;;;5.34;53.38
76074;BME280;64776;42.636;24.358;2024-01-15T14:10:46;88988.03;;;5.37;54.04
76074;BME280;64776;42.636;24.358;2024-01-15T14:13:47;88987.56;;;5.38;54.86
76074;BME280;64776;42.636;24.358;2024-01-15T14:16:49;88992.06;;;5.32;53.72
76074;BME280;64776;42.636;24.358;2024-01-15T14:19:50;88974.44;;;5.24;54.31
76074;BME280;64776;42.636;24.358;2024-01-15T14:22:51;88988.34;;;5.19;54.38
76074;BME280;64776;42.636;24.358;2024-01-15T14:25:51;88988.94;;;5.08;52.96
76074;BME280;64776;42.636;24.358;2024-01-15T14:28:52;88986.63;;;4.95;54.30
76074;BME280;64776;42.636;24.358;2024-01-15T14:31:54;88980.31;;;4.87;54.61
76074;BME280;64776;42.636;24.358;2024-01-15T14:34:55;88968.94;;;4.81;54.43
76074;BME280;64776;42.636;24.358;2024-01-15T14:37:56;88980.06;;;4.65;55.81
76074;BME280;64776;42.636;24.358;2024-01-15T14:40:56;88978.06;;;4.60;55.23
76074;BME280;64776;42.636;24.358;2024-01-15T14:43:57;88969.88;;;4.38;55.43
76074;BME280;64776;42.636;24.358;2024-01-15T14:46:59;88980.97;;;4.42;56.18
76074;BME280;64776;42.636;24.358;2024-01-15T14:50:00;88980.91;;;4.37;56.88
76074;BME280;64776;42.636;24.358;2024-01-15T14:53:01;88979.88;;;4.14;57.62
76074;BME280;64776;42.636;24.358;2024-01-15T14:56:02;88980.03;;;4.25;57.13
76074;BME280;64776;42.636;24.358;2024-01-15T14:59:02;88975.84;;;4.19;57.87
76074;BME280;64776;42.636;24.358;2024-01-15T15:02:04;88975.16;;;4.18;58.96
76074;BME280;64776;42.636;24.358;2024-01-15T15:05:06;88966.16;;;4.10;58.79
76074;BME280;64776;42.636;24.358;2024-01-15T15:08:07;88971.34;;;4.04;59.44
76074;BME280;64776;42.636;24.358;2024-01-15T15:11:08;88972.72;;;4.00;60.29
76074;BME280;64776;42.636;24.358;2024-01-15T15:14:08;88976.66;;;3.90;60.14
76074;BME280;64776;42.636;24.358;2024-01-15T15:17:10;88991.03;;;3.89;60.62
76074;BME280;64776;42.636;24.358;2024-01-15T15:20:11;88983.50;;;3.82;61.11
76074;BME280;64776;42.636;24.358;2024-01-15T15:23:12;88980.88;;;3.67;62.41
76074;BME280;64776;42.636;24.358;2024-01-15T15:26:13;88977.28;;;3.50;62.06
76074;BME280;64776;42.636;24.358;2024-01-15T15:29:14;88979.81;;;3.45;62.46
76074;BME280;64776;42.636;24.358;2024-01-15T15:32:16;88974.91;;;3.38;63.70
76074;BME280;64776;42.636;24.358;2024-01-15T15:35:17;88990.34;;;3.30;63.08
76074;BME280;64776;42.636;24.358;2024-01-15T15:38:17;88986.72;;;3.27;63.19
76074;BME280;64776;42.636;24.358;2024-01-15T15:41:18;88986.00;;;3.27;63.77
76074;BME280;64776;42.636;24.358;2024-01-15T15:44:19;88982.91;;;3.28;63.92
76074;BME280;64776;42.636;24.358;2024-01-15T15:47:21;88984.53;;;3.26;63.66
76074;BME280;64776;42.636;24.358;2024-01-15T15:50:22;88983.63;;;3.14;64.40
76074;BME280;64776;42.636;24.358;2024-01-15T15:53:22;88977.44;;;3.17;63.88
76074;BME280;64776;42.636;24.358;2024-01-15T15:56:23;88982.69;;;3.17;64.35